createdAt,value
2023-05-01T00:00:00.541Z,3.00
2023-05-01T00:00:12.961Z,3.00
2023-05-01T00:00:27.386Z,3.20
2023-05-01T00:00:39.798Z,3.40
2023-05-01T00:00:51.540Z,3.42
2023-05-01T00:01:03.292Z,3.65
2023-05-01T00:01:14.964Z,3.38
2023-05-01T00:01:26.631Z,3.30
2023-05-01T00:01:38.332Z,3.24
2023-05-01T00:01:50.094Z,3.28
2023-05-01T00:02:01.812Z,3.05
2023-05-01T00:02:13.576Z,3.13
2023-05-01T00:02:25.321Z,3.60
2023-05-01T00:02:37.073Z,3.75
2023-05-01T00:02:48.952Z,3.90
2023-05-01T00:03:00.772Z,3.58
2023-05-01T00:03:12.532Z,3.55
2023-05-01T00:03:24.355Z,3.38
2023-05-01T00:03:36.302Z,3.65
2023-05-01T00:03:48.441Z,3.83
2023-05-01T00:04:00.463Z,3.78
2023-05-01T00:04:12.530Z,3.30
2023-05-01T00:04:24.250Z,3.30
2023-05-01T00:04:36.070Z,3.25
2023-05-01T00:04:47.761Z,3.22
2023-05-01T00:04:59.546Z,3.40
2023-05-01T00:05:11.456Z,3.38
2023-05-01T00:05:23.415Z,3.40
2023-05-01T00:05:35.110Z,3.22
2023-05-01T00:05:47.001Z,3.30
2023-05-01T00:06:03.898Z,3.47
2023-05-01T00:06:15.720Z,3.65
2023-05-01T00:06:27.496Z,3.55
2023-05-01T00:06:39.283Z,3.60
2023-05-01T00:06:50.956Z,3.45
2023-05-01T00:07:02.667Z,3.47
2023-05-01T00:07:14.348Z,3.40
2023-05-01T00:07:26.061Z,3.35
2023-05-01T00:07:37.793Z,3.05
2023-05-01T00:07:49.403Z,3.10
2023-05-01T00:08:01.205Z,3.00
2023-05-01T00:08:13.073Z,3.05
2023-05-01T00:08:24.725Z,2.80
2023-05-01T00:08:36.442Z,2.97
2023-05-01T00:08:48.133Z,3.10
2023-05-01T00:08:59.855Z,3.67
2023-05-01T00:09:11.572Z,3.63
2023-05-01T00:09:23.212Z,3.67
2023-05-01T00:09:34.944Z,3.50
2023-05-01T00:09:46.627Z,3.40
2023-05-01T00:09:58.597Z,3.45
2023-05-01T00:10:10.659Z,3.60
2023-05-01T00:10:22.370Z,3.60
2023-05-01T00:10:35.249Z,3.50
2023-05-01T00:10:46.938Z,3.53
2023-05-01T00:11:02.766Z,3.05
2023-05-01T00:11:14.641Z,2.80
2023-05-01T00:11:26.383Z,3.03
2023-05-01T00:11:38.067Z,3.33
2023-05-01T00:11:49.722Z,3.20
2023-05-01T00:12:01.456Z,3.13
2023-05-01T00:12:13.112Z,3.17
2023-05-01T00:12:25.741Z,3.33
2023-05-01T00:12:37.390Z,3.15
2023-05-01T00:12:49.079Z,3.00
2023-05-01T00:13:00.812Z,3.10
2023-05-01T00:13:12.522Z,3.22
2023-05-01T00:13:24.218Z,3.53
2023-05-01T00:13:35.979Z,3.38
2023-05-01T00:13:47.705Z,3.25
2023-05-01T00:13:59.399Z,3.33
2023-05-01T00:14:11.115Z,3.13
2023-05-01T00:14:22.783Z,3.15
2023-05-01T00:14:34.430Z,3.30
2023-05-01T00:14:46.105Z,3.60
2023-05-01T00:14:57.777Z,3.53
2023-05-01T00:15:10.688Z,3.17
2023-05-01T00:15:22.485Z,2.80
2023-05-01T00:15:34.147Z,2.72
2023-05-01T00:15:45.766Z,2.97
2023-05-01T00:15:57.527Z,3.38
2023-05-01T00:16:10.121Z,3.28
2023-05-01T00:16:21.829Z,3.25
2023-05-01T00:16:33.609Z,3.15
2023-05-01T00:16:45.329Z,3.03
2023-05-01T00:16:57.022Z,3.22
2023-05-01T00:17:08.827Z,3.10
2023-05-01T00:17:20.580Z,3.35
2023-05-01T00:17:32.405Z,2.97
2023-05-01T00:17:44.235Z,2.72
2023-05-01T00:17:55.970Z,2.90
2023-05-01T00:18:07.764Z,3.03
2023-05-01T00:18:19.579Z,3.00
2023-05-01T00:18:31.221Z,3.13
2023-05-01T00:18:43.106Z,3.47
2023-05-01T00:18:54.786Z,3.40
2023-05-01T00:19:06.491Z,3.20
2023-05-01T00:19:18.194Z,3.40
2023-05-01T00:19:29.911Z,3.40
2023-05-01T00:19:41.614Z,3.40
2023-05-01T00:19:53.661Z,2.97
2023-05-01T00:20:06.948Z,3.22
2023-05-01T00:20:18.792Z,3.25
2023-05-01T00:20:30.738Z,3.13
2023-05-01T00:21:00.539Z,3.40
2023-05-01T00:21:13.601Z,3.42
2023-05-01T00:21:25.252Z,3.50
2023-05-01T00:21:36.870Z,3.40
2023-05-01T00:21:48.946Z,3.63
2023-05-01T00:22:00.631Z,3.58
2023-05-01T00:22:12.272Z,3.28
2023-05-01T00:22:23.989Z,2.80
2023-05-01T00:22:35.651Z,2.90
2023-05-01T00:22:47.247Z,3.30
2023-05-01T00:22:58.900Z,3.22
2023-05-01T00:23:10.575Z,2.95
2023-05-01T00:23:22.252Z,3.13
2023-05-01T00:23:33.912Z,3.33
2023-05-01T00:23:45.499Z,3.20
2023-05-01T00:23:57.150Z,3.05
2023-05-01T00:24:08.765Z,3.00
2023-05-01T00:24:20.473Z,3.05
2023-05-01T00:24:32.232Z,3.00
2023-05-01T00:24:43.908Z,3.08
2023-05-01T00:24:55.595Z,3.00
2023-05-01T00:25:07.977Z,3.10
2023-05-01T00:25:19.694Z,3.28
2023-05-01T00:25:31.389Z,2.95
2023-05-01T00:25:43.047Z,3.08
2023-05-01T00:25:54.716Z,3.08
2023-05-01T00:26:06.361Z,3.22
2023-05-01T00:26:32.554Z,3.53
2023-05-01T00:26:44.541Z,3.70
2023-05-01T00:26:56.230Z,3.63
2023-05-01T00:27:07.967Z,3.67
2023-05-01T00:27:19.715Z,3.90
2023-05-01T00:27:31.544Z,4.05
2023-05-01T00:27:43.445Z,4.10
2023-05-01T00:27:55.102Z,3.97
2023-05-01T00:28:06.820Z,3.85
2023-05-01T00:28:18.660Z,3.58
2023-05-01T00:28:30.414Z,3.60
2023-05-01T00:28:42.144Z,3.40
2023-05-01T00:28:53.878Z,3.75
2023-05-01T00:29:05.549Z,3.55
2023-05-01T00:29:17.181Z,3.45
2023-05-01T00:29:29.301Z,3.50
2023-05-01T00:29:41.010Z,3.63
2023-05-01T00:29:52.657Z,3.45
2023-05-01T00:30:05.199Z,3.40
2023-05-01T00:30:16.960Z,3.83
2023-05-01T00:30:29.166Z,4.10
2023-05-01T00:30:40.873Z,4.07
2023-05-01T00:30:52.677Z,3.78
2023-05-01T00:31:04.687Z,3.50
2023-05-01T00:31:16.429Z,3.33
2023-05-01T00:31:28.156Z,3.58
2023-05-01T00:31:40.189Z,4.07
2023-05-01T00:31:51.988Z,4.10
2023-05-01T00:32:05.370Z,4.00
2023-05-01T00:32:17.297Z,4.03
2023-05-01T00:32:29.106Z,3.78
2023-05-01T00:32:41.042Z,3.95
2023-05-01T00:32:52.918Z,4.07
2023-05-01T00:33:04.978Z,3.95
2023-05-01T00:33:16.741Z,3.90
2023-05-01T00:33:28.497Z,4.00
2023-05-01T00:33:40.219Z,4.00
2023-05-01T00:33:51.920Z,3.42
2023-05-01T00:34:03.589Z,3.40
2023-05-01T00:34:15.322Z,3.50
2023-05-01T00:34:26.939Z,3.95
2023-05-01T00:34:38.624Z,3.88
2023-05-01T00:34:50.410Z,3.63
2023-05-01T00:35:02.106Z,3.55
2023-05-01T00:35:13.908Z,3.60
2023-05-01T00:35:25.619Z,4.18
2023-05-01T00:35:37.438Z,4.10
2023-05-01T00:35:49.162Z,3.88
2023-05-01T00:36:00.812Z,3.40
2023-05-01T00:36:13.891Z,3.85
2023-05-01T00:36:25.607Z,3.92
2023-05-01T00:36:37.447Z,3.88
2023-05-01T00:36:50.014Z,3.88
2023-05-01T00:37:01.850Z,3.65
2023-05-01T00:37:13.585Z,3.92
2023-05-01T00:37:25.300Z,4.43
2023-05-01T00:37:36.995Z,4.80
2023-05-01T00:37:49.073Z,5.07
2023-05-01T00:38:00.754Z,4.68
2023-05-01T00:38:12.929Z,4.00
2023-05-01T00:38:24.605Z,3.90
2023-05-01T00:38:36.271Z,3.90
2023-05-01T00:38:47.939Z,4.03
2023-05-01T00:38:59.629Z,4.03
2023-05-01T00:39:11.301Z,3.88
2023-05-01T00:39:23.014Z,3.90
2023-05-01T00:39:34.649Z,3.72
2023-05-01T00:39:46.257Z,3.63
2023-05-01T00:39:58.351Z,3.90
2023-05-01T00:40:10.600Z,4.22
2023-05-01T00:40:22.379Z,4.30
2023-05-01T00:40:41.829Z,4.00
2023-05-01T00:40:53.453Z,3.75
2023-05-01T00:41:05.727Z,4.00
2023-05-01T00:41:17.493Z,4.00
2023-05-01T00:41:29.720Z,3.60
2023-05-01T00:41:41.630Z,3.35
2023-05-01T00:41:53.314Z,3.50
2023-05-01T00:42:05.018Z,3.25
2023-05-01T00:42:18.086Z,3.70
2023-05-01T00:42:34.631Z,4.00
2023-05-01T00:42:46.599Z,3.75
2023-05-01T00:42:58.219Z,3.75
2023-05-01T00:43:10.465Z,3.83
2023-05-01T00:43:22.141Z,4.07
2023-05-01T00:43:34.078Z,4.03
2023-05-01T00:43:45.803Z,4.03
2023-05-01T00:43:57.450Z,3.85
2023-05-01T00:44:09.097Z,3.85
2023-05-01T00:44:20.762Z,3.78
2023-05-01T00:44:32.449Z,3.60
2023-05-01T00:44:44.104Z,3.70
2023-05-01T00:44:55.691Z,3.72
2023-05-01T00:45:08.171Z,3.80
2023-05-01T00:45:20.399Z,3.70
2023-05-01T00:45:32.119Z,3.65
2023-05-01T00:45:45.278Z,3.60
2023-05-01T00:45:57.050Z,3.85
2023-05-01T00:46:09.510Z,3.65
2023-05-01T00:46:21.450Z,3.50
2023-05-01T00:46:34.457Z,3.38
2023-05-01T00:46:46.389Z,3.60
2023-05-01T00:46:58.231Z,3.60
2023-05-01T00:47:10.047Z,3.75
2023-05-01T00:47:21.776Z,3.90
2023-05-01T00:47:35.267Z,3.85
2023-05-01T00:47:47.209Z,4.00
2023-05-01T00:47:59.078Z,3.88
2023-05-01T00:48:11.343Z,4.00
2023-05-01T00:48:23.158Z,3.80
2023-05-01T00:48:35.647Z,3.58
2023-05-01T00:48:47.845Z,3.85
2023-05-01T00:48:59.783Z,3.75
2023-05-01T00:49:11.610Z,3.75
2023-05-01T00:49:23.368Z,3.55
2023-05-01T00:49:35.557Z,3.78
2023-05-01T00:49:48.250Z,3.65
2023-05-01T00:50:00.453Z,3.65
2023-05-01T00:50:12.517Z,3.75
2023-05-01T00:50:24.186Z,3.88
2023-05-01T00:50:35.957Z,3.88
2023-05-01T00:50:48.988Z,3.97
2023-05-01T00:51:00.853Z,3.90
2023-05-01T00:51:14.010Z,3.97
2023-05-01T00:51:26.337Z,4.05
2023-05-01T00:51:38.107Z,3.76
2023-05-01T00:51:51.374Z,3.65
2023-05-01T00:52:03.204Z,3.70
2023-05-01T00:52:14.884Z,3.78
2023-05-01T00:52:26.751Z,3.63
2023-05-01T00:52:38.691Z,3.47
2023-05-01T00:52:50.417Z,3.50
2023-05-01T00:53:02.835Z,3.53
2023-05-01T00:53:14.608Z,3.35
2023-05-01T00:53:27.148Z,3.38
2023-05-01T00:53:40.139Z,3.40
2023-05-01T00:53:52.084Z,3.63
2023-05-01T00:54:03.816Z,3.83
2023-05-01T00:54:15.592Z,4.18
2023-05-01T00:54:27.574Z,4.00
2023-05-01T00:54:39.584Z,3.55
2023-05-01T00:54:51.450Z,3.22
2023-05-01T00:55:04.393Z,3.45
2023-05-01T00:55:16.532Z,3.75
2023-05-01T00:55:28.494Z,3.88
2023-05-01T00:55:42.607Z,3.60
2023-05-01T00:55:57.050Z,3.53
2023-05-01T00:56:10.816Z,3.67
2023-05-01T00:56:22.698Z,3.82
2023-05-01T00:56:34.730Z,3.72
2023-05-01T00:56:47.165Z,3.92
2023-05-01T00:56:58.879Z,3.28
2023-05-01T00:57:10.818Z,3.35
2023-05-01T00:57:22.751Z,3.70
2023-05-01T00:57:34.474Z,3.96
2023-05-01T00:57:46.897Z,3.92
2023-05-01T00:58:00.323Z,3.85
2023-05-01T00:58:12.564Z,3.75
2023-05-01T00:58:24.281Z,3.58
2023-05-01T00:58:35.948Z,3.70
2023-05-01T00:58:50.810Z,3.70
2023-05-01T00:59:02.856Z,4.38
2023-05-01T00:59:14.725Z,4.10
2023-05-01T00:59:26.494Z,3.88
2023-05-01T00:59:38.457Z,3.85
2023-05-01T00:59:50.156Z,3.83
2023-05-01T01:00:01.853Z,3.60
2023-05-01T01:00:14.367Z,3.58
2023-05-01T01:00:26.003Z,3.60
2023-05-01T01:00:37.699Z,3.80
2023-05-01T01:00:49.903Z,3.92
2023-05-01T01:01:02.179Z,3.88
2023-05-01T01:01:14.020Z,3.90
2023-05-01T01:01:25.860Z,3.90
2023-05-01T01:01:37.644Z,4.10
2023-05-01T01:01:50.396Z,4.00
2023-05-01T01:02:02.153Z,3.95
2023-05-01T01:02:13.907Z,4.18
2023-05-01T01:02:25.672Z,4.22
2023-05-01T01:02:37.395Z,4.15
2023-05-01T01:02:49.318Z,3.92
2023-05-01T01:03:01.156Z,3.97
2023-05-01T01:03:13.020Z,4.30
2023-05-01T01:03:24.740Z,4.20
2023-05-01T01:03:36.636Z,3.63
2023-05-01T01:03:48.536Z,3.55
2023-05-01T01:04:00.218Z,3.83
2023-05-01T01:04:11.948Z,4.30
2023-05-01T01:04:23.706Z,4.65
2023-05-01T01:04:35.448Z,4.35
2023-05-01T01:04:48.093Z,4.40
2023-05-01T01:05:00.165Z,3.97
2023-05-01T01:05:12.010Z,3.80
2023-05-01T01:05:27.720Z,3.83
2023-05-01T01:05:44.942Z,3.58
2023-05-01T01:06:03.006Z,3.78
2023-05-01T01:06:27.458Z,4.18
2023-05-01T01:06:47.140Z,3.60
2023-05-01T01:07:07.640Z,3.83
2023-05-01T01:07:27.000Z,3.88
2023-05-01T01:07:46.088Z,4.50
2023-05-01T01:08:10.215Z,4.18
2023-05-01T01:08:30.010Z,3.67
2023-05-01T01:08:49.508Z,3.40
2023-05-01T01:09:13.426Z,5.05
2023-05-01T01:09:38.147Z,3.85
2023-05-01T01:10:00.772Z,4.07
2023-05-01T01:10:18.621Z,3.67
2023-05-01T01:10:37.067Z,4.20
2023-05-01T01:10:54.036Z,3.90
2023-05-01T01:11:16.371Z,3.72
2023-05-01T01:11:33.825Z,3.60
2023-05-01T01:11:53.755Z,3.67
2023-05-01T01:12:14.467Z,3.70
2023-05-01T01:12:31.937Z,3.75
2023-05-01T01:12:52.819Z,3.80
2023-05-01T01:13:11.542Z,3.60
2023-05-01T01:13:32.093Z,3.92
2023-05-01T01:13:51.086Z,3.85
2023-05-01T01:14:11.669Z,3.92
2023-05-01T01:14:28.782Z,3.90
2023-05-01T01:14:48.312Z,3.95
2023-05-01T01:15:10.048Z,4.07
2023-05-01T01:15:29.020Z,3.85
2023-05-01T01:15:48.319Z,3.75
2023-05-01T01:16:08.980Z,3.75
2023-05-01T01:16:28.082Z,3.88
2023-05-01T01:16:46.205Z,4.57
2023-05-01T01:17:02.297Z,4.45
2023-05-01T01:17:21.096Z,3.70
2023-05-01T01:17:39.811Z,3.95
2023-05-01T01:17:56.828Z,3.60
2023-05-01T01:18:15.262Z,3.67
2023-05-01T01:18:36.373Z,3.60
2023-05-01T01:18:54.113Z,3.90
2023-05-01T01:19:18.130Z,4.03
2023-05-01T01:20:04.090Z,3.92
2023-05-01T01:20:27.575Z,3.90
2023-05-01T01:20:45.001Z,4.18
2023-05-01T01:21:03.484Z,4.18
2023-05-01T01:21:22.107Z,4.00
2023-05-01T01:21:38.651Z,4.15
2023-05-01T01:21:54.816Z,3.92
2023-05-01T01:22:12.027Z,3.97
2023-05-01T01:22:26.673Z,4.20
2023-05-01T01:22:41.271Z,4.13
2023-05-01T01:23:01.595Z,4.38
2023-05-01T01:23:43.023Z,4.40
2023-05-01T01:24:20.519Z,4.03
2023-05-01T01:25:00.784Z,3.70
2023-05-01T01:25:50.846Z,3.58
2023-05-01T01:26:13.597Z,4.13
2023-05-01T01:26:39.133Z,3.90
2023-05-01T01:27:26.106Z,4.28
2023-05-01T01:27:58.557Z,3.97
2023-05-01T01:28:34.531Z,3.88
2023-05-01T01:29:03.124Z,3.70
2023-05-01T01:29:35.929Z,4.00
2023-05-01T01:30:01.232Z,3.70
2023-05-01T01:30:43.892Z,3.85
2023-05-01T01:31:11.103Z,3.92
2023-05-01T01:31:32.853Z,3.97
2023-05-01T01:31:57.505Z,4.13
2023-05-01T01:32:23.458Z,3.85
2023-05-01T01:32:56.519Z,4.13
2023-05-01T01:33:40.728Z,3.70
2023-05-01T01:34:01.990Z,3.67
2023-05-01T01:34:19.759Z,4.05
2023-05-01T01:34:35.478Z,3.80
2023-05-01T01:34:51.742Z,3.53
2023-05-01T01:35:06.488Z,3.72
2023-05-01T01:35:20.781Z,3.90
2023-05-01T01:35:36.055Z,3.85
2023-05-01T01:35:55.024Z,3.80
2023-05-01T01:36:10.914Z,3.55
2023-05-01T01:36:32.357Z,3.58
2023-05-01T01:36:49.985Z,4.18
2023-05-01T01:37:08.031Z,4.20
2023-05-01T01:37:22.539Z,4.07
2023-05-01T01:37:42.854Z,4.28
2023-05-01T01:38:00.598Z,3.63
2023-05-01T01:38:17.118Z,3.60
2023-05-01T01:38:36.120Z,3.83
2023-05-01T01:38:58.153Z,4.32
2023-05-01T01:39:15.935Z,3.78
2023-05-01T01:39:36.024Z,3.50
2023-05-01T01:39:54.021Z,3.72
2023-05-01T01:40:11.511Z,3.80
2023-05-01T01:40:29.061Z,3.90
2023-05-01T01:40:50.500Z,4.03
2023-05-01T01:41:08.779Z,4.70
2023-05-01T01:41:28.666Z,4.47
2023-05-01T01:41:42.909Z,3.75
2023-05-01T01:41:57.682Z,3.90
2023-05-01T01:42:20.839Z,3.92
2023-05-01T01:42:37.686Z,3.95
2023-05-01T01:42:53.620Z,3.70
2023-05-01T01:43:07.807Z,3.60
2023-05-01T01:43:21.984Z,3.55
2023-05-01T01:43:39.256Z,3.88
2023-05-01T01:43:58.428Z,3.85
2023-05-01T01:44:18.924Z,3.60
2023-05-01T01:44:34.218Z,3.75
2023-05-01T01:44:52.366Z,3.58
2023-05-01T01:45:08.913Z,3.53
2023-05-01T01:45:23.628Z,4.10
2023-05-01T01:45:39.650Z,4.10
2023-05-01T01:45:57.754Z,4.03
2023-05-01T01:46:11.379Z,4.20
2023-05-01T01:46:26.057Z,3.65
2023-05-01T01:46:40.596Z,3.58
2023-05-01T01:46:54.485Z,3.88
2023-05-01T01:47:10.831Z,3.70
2023-05-01T01:47:27.847Z,3.72
2023-05-01T01:47:42.171Z,3.78
2023-05-01T01:47:56.056Z,3.63
2023-05-01T01:48:10.998Z,3.83
2023-05-01T01:48:30.874Z,3.60
2023-05-01T01:48:46.478Z,3.28
2023-05-01T01:49:00.440Z,3.40
2023-05-01T01:49:20.644Z,3.80
2023-05-01T01:49:34.028Z,4.03
2023-05-01T01:49:49.488Z,3.65
2023-05-01T01:50:04.849Z,3.53
2023-05-01T01:50:18.562Z,3.88
2023-05-01T01:50:32.054Z,3.60
2023-05-01T01:50:46.763Z,3.30
2023-05-01T01:50:59.757Z,3.70
2023-05-01T01:51:14.794Z,3.47
2023-05-01T01:51:28.794Z,3.00
2023-05-01T01:51:42.005Z,3.35
2023-05-01T01:51:56.539Z,3.78
2023-05-01T01:52:12.729Z,3.80
2023-05-01T01:52:26.358Z,3.75
2023-05-01T01:52:40.529Z,3.90
2023-05-01T01:52:53.727Z,3.72
2023-05-01T01:53:08.966Z,3.40
2023-05-01T01:53:22.675Z,3.60
2023-05-01T01:53:35.732Z,4.18
2023-05-01T01:53:53.430Z,3.90
2023-05-01T01:54:06.513Z,3.47
2023-05-01T01:54:25.069Z,3.65
2023-05-01T01:54:40.597Z,3.65
2023-05-01T01:54:56.055Z,3.83
2023-05-01T01:55:11.087Z,3.58
2023-05-01T01:55:27.202Z,3.45
2023-05-01T01:55:41.438Z,3.95
2023-05-01T01:55:55.259Z,4.03
2023-05-01T01:56:08.616Z,4.10
2023-05-01T01:56:22.388Z,4.18
2023-05-01T01:56:37.214Z,4.05
2023-05-01T01:56:50.778Z,4.28
2023-05-01T01:57:04.561Z,4.30
2023-05-01T01:57:18.510Z,3.55
2023-05-01T01:57:32.551Z,3.35
2023-05-01T01:57:45.947Z,3.55
2023-05-01T01:57:59.551Z,3.30
2023-05-01T01:58:13.116Z,3.30
2023-05-01T01:58:27.718Z,3.67
2023-05-01T01:58:41.154Z,3.42
2023-05-01T01:58:53.685Z,3.58
2023-05-01T01:59:07.951Z,4.00
2023-05-01T01:59:23.118Z,3.70
2023-05-01T01:59:35.216Z,3.33
2023-05-01T01:59:49.726Z,3.70
2023-05-01T02:00:01.712Z,4.07
2023-05-01T02:00:14.969Z,4.05
2023-05-01T02:00:30.895Z,3.58
2023-05-01T02:00:45.064Z,3.65
2023-05-01T02:00:59.116Z,4.28
2023-05-01T02:01:13.406Z,4.60
2023-05-01T02:01:25.655Z,4.35
2023-05-01T02:01:40.770Z,4.00
2023-05-01T02:01:55.107Z,3.83
2023-05-01T02:02:08.774Z,3.45
2023-05-01T02:02:21.092Z,3.17
2023-05-01T02:02:33.160Z,3.05
2023-05-01T02:02:47.852Z,3.00
2023-05-01T02:03:01.456Z,3.17
2023-05-01T02:03:14.633Z,3.20
2023-05-01T02:03:27.152Z,3.50
2023-05-01T02:03:40.681Z,3.88
2023-05-01T02:03:54.160Z,3.63
2023-05-01T02:04:09.088Z,3.78
2023-05-01T02:04:22.898Z,3.70
2023-05-01T02:04:36.286Z,3.38
2023-05-01T02:04:49.576Z,3.50
2023-05-01T02:05:02.475Z,3.42
2023-05-01T02:05:16.178Z,3.45
2023-05-01T02:05:28.930Z,3.67
2023-05-01T02:05:43.188Z,3.75
2023-05-01T02:05:58.432Z,3.72
2023-05-01T02:06:12.919Z,3.83
2023-05-01T02:06:26.304Z,3.90
2023-05-01T02:06:39.382Z,3.58
2023-05-01T02:06:53.175Z,3.42
2023-05-01T02:07:06.491Z,3.38
2023-05-01T02:07:20.560Z,3.30
2023-05-01T02:07:32.756Z,3.88
2023-05-01T02:07:48.500Z,3.78
2023-05-01T02:08:02.228Z,3.47
2023-05-01T02:08:15.202Z,3.28
2023-05-01T02:08:30.669Z,3.30
2023-05-01T02:08:46.948Z,3.65
2023-05-01T02:08:59.274Z,3.72
2023-05-01T02:09:12.238Z,3.63
2023-05-01T02:09:26.501Z,4.13
2023-05-01T02:09:39.392Z,4.10
2023-05-01T02:09:54.590Z,3.70
2023-05-01T02:10:08.508Z,3.35
2023-05-01T02:10:22.224Z,3.38
2023-05-01T02:10:35.065Z,3.40
2023-05-01T02:10:50.452Z,3.50
2023-05-01T02:11:03.600Z,3.58
2023-05-01T02:11:18.951Z,3.60
2023-05-01T02:11:31.657Z,3.42
2023-05-01T02:11:44.298Z,3.50
2023-05-01T02:11:56.613Z,3.35
2023-05-01T02:12:10.001Z,3.45
2023-05-01T02:12:23.313Z,3.70
2023-05-01T02:12:36.618Z,3.90
2023-05-01T02:12:50.991Z,4.05
2023-05-01T02:13:03.679Z,3.95
2023-05-01T02:13:17.150Z,3.70
2023-05-01T02:13:43.506Z,3.60
2023-05-01T02:13:57.035Z,3.65
2023-05-01T02:14:10.623Z,3.70
2023-05-01T02:14:25.050Z,4.05
2023-05-01T02:14:37.790Z,4.00
2023-05-01T02:14:51.993Z,3.88
2023-05-01T02:15:06.168Z,4.05
2023-05-01T02:15:18.812Z,3.85
2023-05-01T02:15:32.021Z,3.58
2023-05-01T02:15:45.686Z,3.42
2023-05-01T02:15:59.055Z,3.33
2023-05-01T02:16:12.540Z,3.58
2023-05-01T02:16:26.130Z,3.70
2023-05-01T02:16:38.034Z,3.83
2023-05-01T02:16:50.983Z,3.53
2023-05-01T02:17:04.230Z,3.63
2023-05-01T02:17:17.185Z,3.85
2023-05-01T02:17:31.381Z,3.83
2023-05-01T02:17:43.803Z,3.60
2023-05-01T02:17:56.164Z,3.60
2023-05-01T02:18:08.932Z,3.47
2023-05-01T02:18:21.474Z,3.70
2023-05-01T02:18:34.112Z,3.63
2023-05-01T02:18:46.183Z,3.50
2023-05-01T02:18:58.538Z,3.55
2023-05-01T02:19:14.593Z,3.80
2023-05-01T02:19:27.204Z,4.22
2023-05-01T02:19:39.282Z,4.03
2023-05-01T02:19:51.966Z,3.72
2023-05-01T02:20:05.798Z,3.55
2023-05-01T02:20:18.359Z,3.83
2023-05-01T02:20:30.522Z,3.85
2023-05-01T02:20:42.867Z,3.70
2023-05-01T02:20:56.953Z,3.47
2023-05-01T02:21:11.095Z,3.65
2023-05-01T02:21:23.427Z,3.95
2023-05-01T02:21:37.562Z,3.58
2023-05-01T02:21:52.145Z,3.63
2023-05-01T02:22:05.360Z,3.92
2023-05-01T02:22:18.481Z,4.07
2023-05-01T02:22:30.950Z,4.25
2023-05-01T02:22:43.669Z,4.18
2023-05-01T02:22:57.398Z,4.05
2023-05-01T02:23:09.979Z,4.10
2023-05-01T02:23:22.747Z,4.18
2023-05-01T02:23:34.991Z,4.30
2023-05-01T02:23:46.764Z,4.30
2023-05-01T02:24:00.999Z,4.40
2023-05-01T02:24:13.666Z,4.22
2023-05-01T02:24:27.223Z,4.13
2023-05-01T02:24:40.321Z,4.40
2023-05-01T02:24:54.265Z,4.32
2023-05-01T02:25:08.719Z,4.15
2023-05-01T02:25:21.780Z,4.28
2023-05-01T02:25:37.648Z,4.20
2023-05-01T02:25:52.998Z,3.95
2023-05-01T02:26:06.634Z,4.00
2023-05-01T02:26:21.296Z,4.32
2023-05-01T02:26:41.383Z,4.50
2023-05-01T02:26:57.301Z,4.60
2023-05-01T02:27:18.699Z,4.70
2023-05-01T02:27:34.775Z,4.63
2023-05-01T02:27:50.245Z,4.60
2023-05-01T02:28:03.892Z,4.43
2023-05-01T02:28:21.211Z,4.28
2023-05-01T02:28:34.521Z,4.15
2023-05-01T02:28:46.230Z,4.20
2023-05-01T02:28:58.510Z,4.18
2023-05-01T02:29:10.326Z,4.60
2023-05-01T02:29:22.111Z,4.75
2023-05-01T02:29:33.819Z,4.72
2023-05-01T02:29:45.592Z,5.03
2023-05-01T02:29:57.526Z,4.95
2023-05-01T02:30:10.268Z,4.88
2023-05-01T02:30:22.133Z,4.88
2023-05-01T02:30:33.850Z,4.80
2023-05-01T02:30:45.558Z,4.43
2023-05-01T02:30:57.416Z,4.50
2023-05-01T02:31:09.529Z,4.68
2023-05-01T02:31:21.334Z,5.28
2023-05-01T02:31:46.139Z,4.63
2023-05-01T02:31:58.063Z,4.93
2023-05-01T02:32:09.939Z,5.03
2023-05-01T02:32:21.759Z,4.95
2023-05-01T02:32:34.975Z,4.78
2023-05-01T02:32:46.869Z,4.90
2023-05-01T02:32:58.581Z,4.80
2023-05-01T02:33:10.712Z,4.57
2023-05-01T02:33:22.533Z,4.53
2023-05-01T02:33:34.212Z,4.53
2023-05-01T02:33:45.888Z,4.80
2023-05-01T02:33:57.620Z,4.78
2023-05-01T02:34:10.702Z,4.70
2023-05-01T02:34:22.383Z,5.05
2023-05-01T02:34:34.945Z,5.32
2023-05-01T02:34:47.032Z,4.82
2023-05-01T02:34:58.796Z,4.25
2023-05-01T02:35:11.055Z,4.28
2023-05-01T02:35:23.000Z,4.20
2023-05-01T02:35:39.393Z,4.55
2023-05-01T02:35:51.050Z,5.25
2023-05-01T02:36:03.817Z,5.18
2023-05-01T02:36:15.571Z,4.60
2023-05-01T02:36:27.199Z,4.70
2023-05-01T02:36:39.012Z,4.75
2023-05-01T02:36:50.734Z,4.90
2023-05-01T02:37:02.849Z,4.72
2023-05-01T02:37:15.299Z,4.50
2023-05-01T02:37:28.751Z,5.10
2023-05-01T02:37:40.702Z,5.20
2023-05-01T02:37:52.684Z,4.95
2023-05-01T02:38:04.482Z,4.65
2023-05-01T02:38:16.550Z,4.80
2023-05-01T02:38:29.008Z,4.90
2023-05-01T02:38:41.630Z,5.18
2023-05-01T02:38:54.238Z,5.40
2023-05-01T02:39:06.527Z,4.95
2023-05-01T02:39:18.356Z,4.75
2023-05-01T02:39:30.157Z,4.60
2023-05-01T02:39:42.348Z,4.90
2023-05-01T02:39:54.901Z,4.93
2023-05-01T02:40:08.136Z,4.88
2023-05-01T02:40:21.261Z,4.97
2023-05-01T02:40:34.322Z,5.05
2023-05-01T02:40:51.898Z,4.93
2023-05-01T02:41:03.973Z,5.10
2023-05-01T02:41:16.046Z,5.47
2023-05-01T02:41:28.443Z,5.40
2023-05-01T02:41:41.528Z,5.57
2023-05-01T02:41:57.240Z,5.50
2023-05-01T02:42:11.248Z,5.26
2023-05-01T02:42:25.266Z,5.13
2023-05-01T02:42:38.487Z,5.32
2023-05-01T02:42:52.841Z,5.28
2023-05-01T02:43:09.680Z,5.25
2023-05-01T02:43:23.280Z,4.97
2023-05-01T02:43:36.609Z,5.07
2023-05-01T02:43:53.243Z,4.93
2023-05-01T02:44:09.839Z,5.55
2023-05-01T02:44:23.756Z,5.38
2023-05-01T02:44:40.905Z,4.82
2023-05-01T02:44:56.877Z,4.82
2023-05-01T02:45:11.916Z,5.35
2023-05-01T02:45:25.769Z,5.45
2023-05-01T02:45:40.210Z,5.18
2023-05-01T02:45:55.094Z,5.70
2023-05-01T02:46:07.847Z,5.45
2023-05-01T02:46:23.813Z,5.00
2023-05-01T02:46:37.052Z,5.50
2023-05-01T02:46:50.630Z,5.78
2023-05-01T02:47:05.067Z,6.13
2023-05-01T02:47:20.509Z,6.60
2023-05-01T02:47:35.304Z,6.57
2023-05-01T02:47:51.271Z,6.25
2023-05-01T02:48:05.495Z,6.10
2023-05-01T02:48:23.583Z,6.30
2023-05-01T02:48:36.084Z,6.20
2023-05-01T02:48:49.715Z,6.25
2023-05-01T02:49:03.435Z,6.15
2023-05-01T02:49:17.309Z,5.90
2023-05-01T02:49:31.615Z,6.05
2023-05-01T02:49:44.672Z,6.25
2023-05-01T02:49:58.113Z,6.22
2023-05-01T02:50:13.884Z,5.80
2023-05-01T02:50:26.564Z,5.65
2023-05-01T02:50:39.438Z,6.25
2023-05-01T02:50:52.372Z,6.20
2023-05-01T02:51:04.987Z,5.90
2023-05-01T02:51:18.143Z,5.85
2023-05-01T02:51:30.860Z,5.75
2023-05-01T02:51:43.145Z,5.82
2023-05-01T02:51:55.412Z,6.03
2023-05-01T02:52:07.908Z,6.56
2023-05-01T02:52:21.573Z,6.78
2023-05-01T02:52:38.165Z,6.53
2023-05-01T02:53:11.414Z,5.45
2023-05-01T02:53:33.423Z,4.72
2023-05-01T02:53:53.488Z,5.35
2023-05-01T02:54:07.932Z,5.93
2023-05-01T02:54:20.380Z,5.80
2023-05-01T02:54:32.697Z,5.45
2023-05-01T02:54:45.677Z,5.35
2023-05-01T02:54:58.458Z,5.00
2023-05-01T02:55:10.301Z,4.95
2023-05-01T02:55:22.223Z,4.82
2023-05-01T02:55:35.139Z,5.22
2023-05-01T02:55:47.124Z,5.60
2023-05-01T02:55:59.048Z,5.57
2023-05-01T02:56:10.939Z,5.35
2023-05-01T02:56:22.648Z,5.38
2023-05-01T02:56:34.520Z,5.43
2023-05-01T02:56:46.665Z,5.50
2023-05-01T02:56:58.446Z,5.43
2023-05-01T02:57:10.336Z,5.72
2023-05-01T02:57:22.019Z,5.55
2023-05-01T02:57:33.843Z,5.60
2023-05-01T02:57:45.571Z,5.38
2023-05-01T02:57:58.476Z,6.25
2023-05-01T02:58:15.160Z,5.75
2023-05-01T02:58:30.406Z,4.80
2023-05-01T02:58:42.368Z,5.03
2023-05-01T02:58:54.384Z,5.25
2023-05-01T02:59:06.017Z,5.13
2023-05-01T02:59:17.692Z,5.10
2023-05-01T02:59:29.372Z,5.43
2023-05-01T02:59:41.850Z,5.90
2023-05-01T02:59:53.739Z,5.60
2023-05-01T03:00:07.270Z,5.28
2023-05-01T03:00:19.240Z,5.30
2023-05-01T03:00:30.913Z,5.10
2023-05-01T03:00:42.834Z,5.22
2023-05-01T03:00:54.662Z,5.20
2023-05-01T03:01:06.486Z,5.25
2023-05-01T03:01:18.304Z,5.40
2023-05-01T03:01:30.122Z,5.25
2023-05-01T03:01:42.034Z,4.90
2023-05-01T03:01:53.896Z,5.15
2023-05-01T03:02:05.870Z,5.32
2023-05-01T03:02:17.992Z,5.10
2023-05-01T03:02:29.751Z,4.97
2023-05-01T03:02:41.478Z,5.00
2023-05-01T03:02:53.322Z,4.90
2023-05-01T03:03:05.138Z,5.05
2023-05-01T03:03:17.191Z,5.38
2023-05-01T03:03:29.117Z,5.78
2023-05-01T03:03:40.922Z,5.88
2023-05-01T03:03:52.789Z,5.32
2023-05-01T03:04:04.886Z,5.53
2023-05-01T03:04:18.007Z,5.43
2023-05-01T03:04:29.868Z,5.40
2023-05-01T03:04:42.082Z,5.50
2023-05-01T03:04:53.805Z,5.63
2023-05-01T03:05:07.277Z,5.35
2023-05-01T03:05:18.945Z,5.00
2023-05-01T03:05:30.679Z,5.30
2023-05-01T03:05:42.511Z,5.70
2023-05-01T03:05:54.171Z,5.47
2023-05-01T03:06:06.008Z,5.32
2023-05-01T03:06:17.829Z,5.57
2023-05-01T03:06:29.589Z,5.70
2023-05-01T03:06:41.331Z,5.85
2023-05-01T03:06:53.076Z,5.50
2023-05-01T03:07:04.770Z,5.47
2023-05-01T03:07:16.440Z,5.20